Time;durP1;ratioP1;P1;durP2;ratioP2;P2;SDS_P1;SDS_P2;PMS_P1;PMS_P2;Temp;Humidity;BMP_temperature;BMP_pressure;BME280_temperature;BME280_humidity;BME280_pressure;Samples;Min_cycle;Max_cycle;Signal;HPM_P1;HPM_P2
2022/11/12 00:00:37;;;;;;;17.57;12.97;;;4.60;99.90;;;4.46;93.79;99637.09;4987552;28;20487;-71
2022/11/12 00:03:05;;;;;;;16.13;13.40;;;4.60;99.90;;;4.49;94.27;99634.16;4970856;28;20456;-70
2022/11/12 00:05:32;;;;;;;16.17;13.30;;;4.60;99.90;;;4.45;93.49;99626.53;4963888;28;20493;-71
2022/11/12 00:08:01;;;;;;;17.03;13.27;;;4.60;99.90;;;4.38;94.88;99623.56;4978972;28;20453;-70
2022/11/12 00:10:30;;;;;;;16.70;13.20;;;4.60;99.90;;;4.29;95.22;99627.03;4986582;28;20455;-71
2022/11/12 00:12:57;;;;;;;16.43;13.20;;;4.60;99.90;;;4.43;94.73;99625.84;4982563;28;20963;-72
2022/11/12 00:15:25;;;;;;;20.83;13.60;;;4.60;99.90;;;4.34;94.27;99631.00;4982650;28;20558;-72
2022/11/12 00:17:52;;;;;;;16.60;12.90;;;4.50;99.90;;;4.39;94.23;99631.44;4971766;28;20471;-72
2022/11/12 00:20:20;;;;;;;16.40;13.60;;;4.50;99.90;;;4.29;94.56;99624.38;4963849;28;20779;-71
2022/11/12 00:22:47;;;;;;;16.10;12.93;;;4.50;99.90;;;4.30;94.34;99634.09;4982011;28;20441;-71
2022/11/12 00:25:16;;;;;;;16.30;12.13;;;4.40;99.90;;;4.25;94.76;99623.81;4984351;28;20468;-70
2022/11/12 00:27:43;;;;;;;14.33;11.83;;;4.40;99.90;;;3.39;93.91;99483.28;4980485;28;20505;-72
2022/11/12 00:30:12;;;;;;;14.10;12.53;;;4.40;99.90;;;4.22;94.25;99632.94;4967765;28;20452;-70
2022/11/12 00:32:39;;;;;;;15.13;11.90;;;4.30;99.90;;;4.25;94.42;99632.66;4971231;28;20456;-70
2022/11/12 00:35:08;;;;;;;16.73;13.17;;;4.40;99.90;;;4.14;95.02;99630.06;4986398;28;20570;-71
2022/11/12 00:37:36;;;;;;;15.70;12.77;;;4.40;99.90;;;4.00;95.96;99617.94;4987214;28;20468;-71
2022/11/12 00:40:03;;;;;;;18.10;12.07;;;4.30;99.90;;;4.11;96.25;99627.69;4981007;28;20456;-71
2022/11/12 00:42:32;;;;;;;17.07;13.10;;;4.30;99.90;;;4.10;95.38;99626.00;4991160;28;20469;-69
2022/11/12 00:44:59;;;;;;;15.03;13.43;;;4.30;99.90;;;4.06;94.97;99628.06;4970375;28;20475;-70
2022/11/12 00:47:26;;;;;;;13.57;11.43;;;4.30;99.90;;;4.07;95.33;99618.25;4986472;28;20896;-69
2022/11/12 00:49:54;;;;;;;14.33;11.47;;;4.30;99.90;;;4.05;95.80;99609.50;4978352;28;20464;-70
2022/11/12 00:52:21;;;;;;;16.97;11.60;;;4.30;99.90;;;4.14;95.77;99623.91;4985222;28;20463;-71
2022/11/12 00:54:48;;;;;;;15.00;11.47;;;4.30;99.90;;;4.19;95.57;99610.94;4983544;28;20518;-70
2022/11/12 00:57:15;;;;;;;14.70;11.33;;;4.40;99.90;;;4.24;95.94;99614.91;4987132;28;21145;-69
2022/11/12 00:59:44;;;;;;;12.73;11.33;;;4.30;99.90;;;4.30;95.53;99612.69;4984908;28;20492;-69
2022/11/12 01:02:11;;;;;;;14.17;10.77;;;4.40;99.90;;;4.28;94.95;99603.94;4977084;28;20531;-70
2022/11/12 01:04:38;;;;;;;13.50;12.10;;;4.40;99.90;;;4.32;95.24;99606.22;4958552;28;20495;-71
2022/11/12 01:07:05;;;;;;;14.43;11.60;;;4.40;99.90;;;4.30;96.27;99610.88;4973048;28;20447;-71
2022/11/12 01:09:34;;;;;;;14.67;12.07;;;4.50;99.90;;;4.35;95.55;99605.09;4993245;28;20471;-70
2022/11/12 01:12:01;;;;;;;16.80;12.77;;;4.50;99.90;;;4.40;96.63;99610.88;4975852;28;20447;-70
2022/11/12 01:14:28;;;;;;;15.03;12.10;;;4.50;99.90;;;4.37;95.74;99601.28;4989850;28;20463;-69
2022/11/12 01:16:57;;;;;;;17.30;12.10;;;4.50;99.90;;;4.24;96.19;99585.50;4976794;28;20504;-70
2022/11/12 01:19:24;;;;;;;15.57;12.73;;;4.60;99.90;;;4.38;96.48;99604.81;4970752;28;21132;-72
2022/11/12 01:21:51;;;;;;;14.13;11.73;;;4.60;99.90;;;4.44;96.10;99585.53;4990937;28;20735;-70
2022/11/12 01:24:18;;;;;;;14.90;11.60;;;4.70;99.90;;;4.44;95.38;99598.09;4988295;28;20471;-71
2022/11/12 01:26:46;;;;;;;16.07;13.03;;;4.70;99.90;;;4.46;95.91;99591.59;4992943;28;20782;-70
2022/11/12 01:29:13;;;;;;;15.47;11.70;;;4.70;99.90;;;4.51;95.50;99599.22;4994167;28;20460;-70
2022/11/12 01:31:40;;;;;;;17.97;12.70;;;4.70;99.90;;;4.55;95.13;99592.63;4967703;28;21031;-71
2022/11/12 01:34:10;;;;;;;15.33;12.80;;;4.70;99.90;;;4.57;95.43;99592.47;4972655;28;20922;-69
2022/11/12 01:36:39;;;;;;;14.60;11.77;;;4.80;99.90;;;4.46;95.79;99588.91;4972633;28;20511;-70
2022/11/12 01:39:08;;;;;;;14.90;12.17;;;4.80;99.90;;;4.50;95.66;99579.66;4974466;28;20878;-69
2022/11/12 01:41:38;;;;;;;16.17;12.00;;;4.80;99.90;;;4.42;95.50;99563.41;4992425;28;20459;-69
2022/11/12 01:44:16;;;;;;;14.63;12.10;;;4.80;99.90;;;4.67;95.53;99586.13;4982028;28;20471;-69
2022/11/12 01:46:57;;;;;;;13.97;10.63;;;4.80;99.90;;;4.56;95.45;99580.06;4975936;28;20555;-69
2022/11/12 01:49:31;;;;;;;13.70;10.93;;;4.80;99.90;;;4.59;95.63;99575.28;4973622;28;20456;-70
2022/11/12 01:52:08;;;;;;;14.07;11.07;;;4.80;99.90;;;4.54;95.45;99578.38;4955773;28;20452;-69
2022/11/12 01:54:36;;;;;;;12.20;10.20;;;4.80;99.90;;;4.57;94.78;99571.06;4955589;28;20449;-72
2022/11/12 01:57:04;;;;;;;13.73;9.70;;;4.80;99.90;;;4.63;94.78;99576.69;4978774;28;20465;-71
2022/11/12 01:59:41;;;;;;;12.13;9.90;;;4.80;99.90;;;4.65;94.66;99573.91;4986201;28;20443;-70
2022/11/12 02:02:09;;;;;;;13.77;10.70;;;4.90;99.90;;;4.66;94.55;99575.59;4973913;28;20485;-71
2022/11/12 02:04:40;;;;;;;13.43;10.30;;;4.90;99.90;;;4.63;94.84;99573.19;4991090;28;20851;-70
2022/11/12 02:07:08;;;;;;;12.07;9.63;;;4.90;99.90;;;4.78;94.56;99576.28;4985021;28;20465;-70
2022/11/12 02:09:36;;;;;;;12.23;10.20;;;4.90;99.90;;;4.69;94.07;99575.31;4970787;28;20451;-70
2022/11/12 02:12:04;;;;;;;12.87;9.93;;;4.90;99.90;;;4.66;94.80;99575.59;4989303;28;20468;-71
2022/11/12 02:14:31;;;;;;;12.60;10.60;;;4.90;99.90;;;4.74;94.62;99572.22;4967436;28;20437;-69
2022/11/12 02:16:59;;;;;;;12.20;9.83;;;4.90;99.90;;;4.78;93.32;99574.47;4987534;28;20603;-71
2022/11/12 02:19:26;;;;;;;12.13;9.90;;;4.90;99.90;;;4.75;93.72;99566.69;4992669;28;20494;-68
2022/11/12 02:21:55;;;;;;;11.03;9.83;;;4.90;99.90;;;4.75;93.95;99573.91;4974987;28;20520;-70
2022/11/12 02:24:34;;;;;;;12.33;9.63;;;4.90;99.90;;;4.80;93.69;99572.50;4988817;28;20787;-70
2022/11/12 02:27:01;;;;;;;10.40;9.03;;;4.90;99.90;;;4.82;93.50;99575.03;4979677;28;20465;-69
2022/11/12 02:29:29;;;;;;;9.83;8.83;;;4.90;99.90;;;4.77;93.21;99570.06;4983468;28;20531;-71
2022/11/12 02:31:56;;;;;;;10.33;8.83;;;5.00;99.90;;;4.75;93.32;99579.25;4959735;28;20559;-69
2022/11/12 02:34:24;;;;;;;10.57;9.47;;;5.00;99.90;;;4.76;94.32;99571.06;4980931;28;20936;-70
2022/11/12 02:36:51;;;;;;;9.97;8.97;;;4.90;99.90;;;4.78;93.53;99582.50;4993130;28;20514;-70
2022/11/12 02:39:19;;;;;;;11.33;9.50;;;4.90;99.90;;;4.85;93.50;99576.59;4992091;28;20963;-70
2022/11/12 02:41:46;;;;;;;11.00;9.90;;;5.00;99.90;;;4.77;93.80;99562.03;4980120;28;20457;-71
2022/11/12 02:44:13;;;;;;;10.50;8.70;;;5.00;99.90;;;4.73;93.66;99557.97;4972256;28;20965;-70
2022/11/12 02:46:41;;;;;;;10.67;9.40;;;5.00;99.90;;;4.25;93.69;99482.81;4972261;28;20472;-72
2022/11/12 02:49:08;;;;;;;11.10;9.70;;;5.00;99.90;;;4.58;94.18;99546.84;4954835;28;20452;-72
2022/11/12 02:51:35;;;;;;;11.20;9.83;;;4.90;99.90;;;4.72;94.33;99563.47;4972469;28;20459;-72
2022/11/12 02:54:03;;;;;;;10.10;9.00;;;4.90;99.90;;;4.66;94.34;99559.53;4986732;28;20457;-71
2022/11/12 02:56:31;;;;;;;12.53;9.30;;;5.00;99.90;;;4.73;94.57;99566.00;4979052;28;20474;-71
2022/11/12 02:58:59;;;;;;;10.53;9.17;;;4.90;99.90;;;4.21;94.65;99488.59;4973303;28;20463;-72
2022/11/12 03:01:26;;;;;;;12.20;9.93;;;4.90;99.90;;;4.78;94.05;99569.13;4968577;28;20527;-71
2022/11/12 03:03:53;;;;;;;10.20;8.80;;;4.90;99.90;;;4.78;93.97;99571.81;4990609;28;20460;-71
2022/11/12 03:06:20;;;;;;;11.10;8.90;;;4.90;99.90;;;4.81;93.81;99584.91;4969802;28;20488;-71
2022/11/12 03:08:48;;;;;;;11.67;9.93;;;4.90;99.90;;;4.66;94.61;99592.47;4981824;28;20456;-71
2022/11/12 03:11:17;;;;;;;13.10;9.40;;;4.90;99.90;;;4.84;93.65;99578.41;4992077;28;20518;-69
2022/11/12 03:13:45;;;;;;;11.40;8.90;;;4.90;99.90;;;4.82;93.82;99578.56;4979527;28;20802;-70
2022/11/12 03:16:12;;;;;;;17.00;11.07;;;4.90;99.90;;;4.87;93.88;99596.03;4963247;28;20544;-70
2022/11/12 03:18:40;;;;;;;11.47;8.20;;;4.90;99.90;;;4.86;93.09;99581.81;4975713;28;20459;-70
2022/11/12 03:21:07;;;;;;;12.20;9.37;;;4.90;99.90;;;4.95;93.41;99586.31;4975509;28;20467;-72
2022/11/12 03:23:34;;;;;;;12.20;10.13;;;4.90;99.90;;;4.82;93.45;99591.94;4972680;28;20512;-71
2022/11/12 03:26:05;;;;;;;12.90;8.90;;;4.90;99.90;;;4.76;93.99;99584.44;4960562;28;20988;-71
2022/11/12 03:28:33;;;;;;;12.27;9.20;;;4.90;99.90;;;4.74;93.80;99591.78;4980695;28;20491;-70
2022/11/12 03:31:02;;;;;;;9.53;8.53;;;4.90;99.90;;;4.82;93.50;99577.69;4974261;28;20518;-71
2022/11/12 03:33:29;;;;;;;11.70;8.50;;;4.90;99.90;;;4.79;93.54;99586.88;4959699;28;21015;-72
2022/11/12 03:35:56;;;;;;;16.37;9.10;;;4.90;99.90;;;4.82;93.31;99581.25;4953772;28;20441;-71
2022/11/12 03:38:23;;;;;;;11.47;9.17;;;4.90;99.90;;;4.84;93.36;99581.06;4971216;28;20433;-73
2022/11/12 03:40:51;;;;;;;9.70;8.70;;;4.90;99.90;;;4.78;92.99;99595.91;4979960;28;20459;-72
2022/11/12 03:43:18;;;;;;;11.50;8.90;;;4.80;99.90;;;4.73;92.93;99582.06;4977219;28;20471;-71
2022/11/12 03:45:45;;;;;;;10.40;8.40;;;4.80;99.90;;;4.77;93.71;99582.63;4971955;28;20519;-71
2022/11/12 03:48:14;;;;;;;10.90;8.23;;;4.80;99.90;;;4.75;92.63;99581.94;4989751;28;20804;-70
2022/11/12 03:50:41;;;;;;;13.63;9.80;;;4.80;99.90;;;4.34;93.14;99537.34;4954589;28;20453;-71
2022/11/12 03:53:08;;;;;;;11.23;9.67;;;4.80;99.90;;;4.50;94.95;99581.47;4964464;28;20460;-69
2022/11/12 03:55:36;;;;;;;12.33;9.07;;;4.80;99.90;;;4.59;93.70;99585.13;4982134;28;20600;-71
2022/11/12 03:58:03;;;;;;;10.40;9.30;;;4.70;99.90;;;4.53;94.49;99582.03;4972606;28;20575;-68
2022/11/12 04:00:30;;;;;;;11.03;8.73;;;4.70;99.90;;;4.52;94.03;99591.06;4990813;28;20578;-72
2022/11/12 04:02:58;;;;;;;10.53;8.43;;;4.60;99.90;;;4.11;94.14;99507.31;4983741;28;20452;-69
2022/11/12 04:11:00;;;;;;;11.17;8.53;;;4.50;99.90;;;4.32;94.73;99581.28;4977683;28;20466;-71
2022/11/12 04:13:27;;;;;;;10.60;8.23;;;4.50;99.90;;;4.36;93.83;99563.97;4981607;28;20543;-69
2022/11/12 04:21:50;;;;;;;12.30;9.40;;;4.50;99.90;;;4.28;93.36;99582.53;4969780;28;20953;-70
2022/11/12 04:27:05;;;;;;;10.00;8.67;;;4.40;99.90;;;4.24;92.98;99585.50;4967184;28;20458;-71
2022/11/12 04:32:18;;;;;;;11.27;9.93;;;4.30;99.90;;;4.13;93.37;99585.59;4982002;28;20456;-71
2022/11/12 04:34:45;;;;;;;11.07;8.33;;;4.30;99.90;;;4.14;92.84;99587.28;4984088;28;20444;-72
2022/11/12 04:37:14;;;;;;;12.47;9.80;;;4.30;99.90;;;4.06;93.12;99584.44;4966822;28;20492;-70
2022/11/12 04:39:41;;;;;;;13.93;11.03;;;4.20;99.90;;;3.96;93.67;99587.91;4969118;28;20456;-70
2022/11/12 04:45:01;;;;;;;17.33;11.90;;;4.20;99.90;;;3.92;93.02;99589.19;4985644;28;20471;-69
2022/11/12 04:47:34;;;;;;;13.40;11.43;;;4.10;99.90;;;3.78;92.49;99566.28;4988226;28;20497;-70
2022/11/12 04:50:04;;;;;;;11.10;9.90;;;4.00;99.90;;;3.79;92.62;99584.06;4985482;28;20459;-73
2022/11/12 04:52:33;;;;;;;11.60;10.40;;;3.90;99.90;;;3.79;92.70;99589.41;4966841;28;20506;-69
2022/11/12 04:55:00;;;;;;;15.90;11.07;;;3.80;99.90;;;3.79;91.90;99599.25;4966809;28;20449;-71
2022/11/12 04:57:27;;;;;;;12.87;11.30;;;3.80;99.90;;;3.82;91.68;99593.63;4984257;28;20463;-70
2022/11/12 04:59:55;;;;;;;13.50;10.97;;;3.90;99.90;;;3.82;91.60;99596.28;4981066;28;20454;-69
2022/11/12 05:02:22;;;;;;;12.37;8.77;;;3.90;99.90;;;3.78;91.62;99593.03;4981733;28;20961;-70
2022/11/12 05:04:49;;;;;;;11.03;8.80;;;3.80;99.90;;;3.75;92.74;99593.31;4984683;28;20482;-70
2022/11/12 05:07:17;;;;;;;11.83;9.50;;;3.90;99.90;;;3.73;93.81;99597.09;4962422;28;20989;-71
2022/11/12 05:09:46;;;;;;;12.50;10.07;;;3.90;99.90;;;3.69;92.57;99592.00;4969985;28;21244;-70
2022/11/12 05:12:14;;;;;;;11.13;9.00;;;3.90;99.90;;;3.72;92.72;99592.75;4984750;28;20456;-69
2022/11/12 05:14:41;;;;;;;11.00;9.50;;;3.90;99.90;;;3.72;93.94;99596.25;4970180;28;20535;-70
2022/11/12 05:17:08;;;;;;;10.13;9.03;;;3.90;99.90;;;3.67;92.55;99591.28;4954659;28;20856;-69
2022/11/12 05:19:35;;;;;;;11.10;8.93;;;3.80;99.90;;;3.55;93.21;99589.66;4973111;28;20824;-70
2022/11/12 05:22:04;;;;;;;12.73;8.80;;;3.70;99.90;;;3.61;93.58;99594.50;4958937;28;20453;-67
2022/11/12 05:24:33;;;;;;;10.63;8.20;;;3.70;99.90;;;3.50;93.34;99573.19;4955469;28;20987;-69
2022/11/12 05:27:02;;;;;;;9.30;7.53;;;3.60;99.90;;;3.60;93.06;99595.50;4969410;28;20460;-69
2022/11/12 05:29:30;;;;;;;8.93;8.03;;;3.60;99.90;;;3.52;92.95;99588.13;4984755;28;20447;-70
2022/11/12 05:31:57;;;;;;;10.60;9.30;;;3.60;99.90;;;3.26;93.42;99604.53;4980685;28;20460;-70
2022/11/12 05:34:24;;;;;;;10.77;8.40;;;3.40;99.90;;;3.32;93.70;99595.16;4974347;28;20507;-69
2022/11/12 05:36:52;;;;;;;10.83;8.80;;;3.40;99.90;;;3.27;94.10;99594.72;4971126;28;20484;-72
2022/11/12 05:39:19;;;;;;;12.20;8.70;;;3.30;99.90;;;3.15;94.10;99590.41;4974086;28;20855;-69
2022/11/12 05:41:47;;;;;;;11.53;9.83;;;3.20;99.90;;;3.22;94.86;99594.25;4973154;28;20464;-71
2022/11/12 05:44:15;;;;;;;10.40;8.47;;;3.20;99.90;;;3.36;94.36;99593.91;4989725;28;20455;-72
2022/11/12 05:46:42;;;;;;;11.53;9.37;;;3.30;99.90;;;3.31;94.29;99585.47;4970844;28;20472;-71
2022/11/12 05:49:09;;;;;;;12.90;9.40;;;3.40;99.90;;;3.29;93.94;99600.78;4953105;28;20448;-70
2022/11/12 05:51:36;;;;;;;10.10;7.77;;;3.30;99.90;;;3.22;93.83;99592.44;4972737;28;20432;-71
2022/11/12 05:54:05;;;;;;;9.23;8.13;;;3.30;99.90;;;3.16;93.67;99581.41;4982779;28;20455;-71
2022/11/12 05:56:33;;;;;;;11.10;8.30;;;3.30;99.90;;;3.17;94.37;99610.66;4973929;28;20443;-71
2022/11/12 05:59:01;;;;;;;12.70;9.00;;;3.30;99.90;;;3.15;94.12;99601.91;4975425;28;20502;-70
2022/11/12 06:01:30;;;;;;;11.33;9.07;;;3.40;99.90;;;2.64;94.31;99526.03;4993126;28;20533;-71
2022/11/12 06:03:57;;;;;;;11.30;9.50;;;3.40;99.90;;;3.09;94.13;99597.94;4982452;28;20483;-70
2022/11/12 06:06:25;;;;;;;10.53;8.10;;;3.30;99.90;;;3.02;93.94;99612.78;4967612;28;20471;-74
2022/11/12 06:08:52;;;;;;;13.07;8.90;;;3.30;99.90;;;2.86;94.71;99594.50;4985535;28;20467;-72
2022/11/12 06:11:19;;;;;;;11.93;9.13;;;3.20;99.90;;;3.00;94.51;99606.72;4965886;28;20463;-72
2022/11/12 06:13:46;;;;;;;11.67;8.47;;;3.20;99.90;;;2.95;94.02;99617.78;4980159;28;20860;-69
2022/11/12 06:16:13;;;;;;;14.17;8.90;;;3.10;99.90;;;2.91;94.73;99612.81;4987143;28;20459;-70
2022/11/12 06:18:42;;;;;;;13.00;9.40;;;3.10;99.90;;;2.91;95.02;99610.16;4982685;28;20470;-69
2022/11/12 06:21:21;;;;;;;16.83;9.70;;;3.10;99.90;;;2.95;95.28;99617.78;4988235;28;20522;-71
2022/11/12 06:23:51;;;;;;;14.27;8.67;;;3.10;99.90;;;2.91;95.27;99620.84;4984488;28;20550;-71
2022/11/12 06:26:19;;;;;;;19.87;9.60;;;3.10;99.90;;;2.96;95.85;99629.34;4967518;28;20480;-69
2022/11/12 06:28:48;;;;;;;41.87;12.30;;;3.20;99.90;;;3.00;95.27;99624.56;4971551;28;20960;-70
2022/11/12 06:31:16;;;;;;;32.13;11.57;;;3.20;99.90;;;2.90;96.15;99616.47;4965601;28;21006;-71
2022/11/12 06:33:45;;;;;;;34.73;10.90;;;3.20;99.90;;;2.94;96.22;99631.25;4962859;28;20490;-69
2022/11/12 06:36:14;;;;;;;39.70;11.57;;;3.20;99.90;;;2.92;97.05;99639.41;4985818;28;20474;-70
2022/11/12 06:38:43;;;;;;;41.50;11.20;;;3.20;99.90;;;2.92;95.95;99631.41;4966019;28;20463;-70
2022/11/12 06:41:12;;;;;;;24.10;10.67;;;3.20;99.90;;;2.79;96.57;99601.34;4976327;28;21007;-71
2022/11/12 06:43:40;;;;;;;27.67;11.10;;;3.20;99.90;;;2.97;96.13;99631.03;4984294;28;20509;-69
2022/11/12 06:46:11;;;;;;;27.97;11.23;;;3.30;99.90;;;2.93;96.25;99616.22;4963192;28;20584;-73
2022/11/12 06:48:40;;;;;;;25.87;10.90;;;3.30;99.90;;;2.96;97.23;99632.00;4980018;28;20448;-69
2022/11/12 06:51:12;;;;;;;31.87;10.57;;;3.30;99.90;;;2.94;96.74;99632.13;4958534;28;20461;-71
2022/11/12 06:53:39;;;;;;;24.80;9.93;;;3.30;99.90;;;2.97;97.18;99639.03;4978482;28;20859;-69
2022/11/12 06:56:08;;;;;;;14.73;9.40;;;3.30;99.90;;;2.99;97.00;99642.44;4964090;28;20456;-70
2022/11/12 06:58:36;;;;;;;17.27;9.50;;;3.30;99.90;;;3.09;97.11;99629.97;4984186;28;20463;-69
2022/11/12 07:01:09;;;;;;;17.30;9.07;;;3.30;99.90;;;3.20;96.80;99634.44;4977928;28;20463;-69
2022/11/12 07:03:38;;;;;;;18.17;10.50;;;3.40;99.90;;;3.19;96.96;99626.56;4973367;28;20453;-69
2022/11/12 07:06:10;;;;;;;20.27;10.53;;;3.40;99.90;;;3.18;96.77;99630.22;4969682;28;20467;-68
2022/11/12 07:08:37;;;;;;;18.87;9.90;;;3.50;99.90;;;3.27;96.92;99640.13;4980922;28;20464;-71
2022/11/12 07:11:06;;;;;;;18.80;9.43;;;3.50;99.90;;;3.07;97.13;99633.78;4972752;28;20462;-70
2022/11/12 07:13:35;;;;;;;21.83;10.07;;;3.50;99.90;;;3.36;97.48;99631.31;4972286;28;20525;-68
2022/11/12 07:16:04;;;;;;;13.53;9.27;;;3.60;99.90;;;3.34;97.49;99640.47;4969069;28;20467;-70
2022/11/12 07:18:33;;;;;;;16.20;10.10;;;3.60;99.90;;;3.28;97.71;99631.13;4986436;28;20459;-69
2022/11/12 07:21:03;;;;;;;13.70;9.60;;;3.70;99.90;;;3.32;97.14;99640.59;4986166;28;20484;-68
2022/11/12 07:23:35;;;;;;;13.20;9.40;;;3.70;99.90;;;3.42;97.44;99639.81;4973104;28;20459;-70
2022/11/12 07:26:04;;;;;;;13.77;9.30;;;3.70;99.90;;;3.52;97.46;99641.59;4976488;28;20550;-69
2022/11/12 07:28:32;;;;;;;13.23;9.07;;;3.80;99.90;;;3.52;97.07;99635.38;4988173;28;20470;-70
2022/11/12 07:31:01;;;;;;;16.60;10.83;;;3.80;99.90;;;3.73;97.26;99632.69;4988174;28;20452;-69
2022/11/12 07:33:29;;;;;;;14.73;11.33;;;3.90;99.90;;;3.83;96.53;99630.06;4989620;28;20995;-69
2022/11/12 07:35:58;;;;;;;14.43;10.23;;;4.00;99.90;;;3.84;95.63;99634.44;4988325;28;20558;-69
2022/11/12 07:38:26;;;;;;;15.50;10.23;;;4.10;99.90;;;4.06;96.75;99635.28;4968580;28;20812;-69
2022/11/12 07:41:01;;;;;;;12.33;9.17;;;4.20;99.90;;;4.21;95.40;99635.75;4981310;28;20463;-69
2022/11/12 07:43:28;;;;;;;16.50;9.77;;;4.30;99.90;;;4.04;94.54;99630.03;4966273;28;20550;-70
2022/11/12 07:45:59;;;;;;;16.80;9.77;;;4.40;99.90;;;3.99;95.55;99631.41;4966578;28;20888;-69
2022/11/12 07:48:26;;;;;;;16.00;9.30;;;4.40;99.90;;;4.02;95.71;99637.34;4977583;28;20490;-68
2022/11/12 07:50:59;;;;;;;20.30;12.13;;;4.40;99.90;;;4.04;95.28;99637.22;4980140;28;20452;-70
2022/11/12 07:53:27;;;;;;;16.30;10.20;;;4.40;99.90;;;4.11;95.51;99625.00;4976461;28;20556;-70
2022/11/12 07:55:54;;;;;;;23.60;10.50;;;4.50;99.90;;;4.26;95.57;99633.53;4967049;28;21023;-68
2022/11/12 07:58:24;;;;;;;16.13;10.63;;;4.50;99.90;;;4.66;95.13;99643.34;4978443;28;20444;-69
2022/11/12 08:00:52;;;;;;;10.70;9.60;;;4.70;99.90;;;4.82;94.06;99640.16;4980579;28;20456;-70
2022/11/12 08:03:19;;;;;;;11.20;9.93;;;4.90;99.90;;;4.91;93.87;99638.47;4966408;28;20944;-70
2022/11/12 08:05:47;;;;;;;11.00;9.47;;;5.00;99.90;;;4.82;93.37;99634.81;4966661;28;20973;-69
2022/11/12 08:08:14;;;;;;;10.47;9.40;;;5.00;99.90;;;4.82;93.31;99637.47;4980960;28;20536;-70
2022/11/12 08:10:42;;;;;;;11.97;9.50;;;5.10;99.90;;;4.99;92.56;99627.06;4958435;28;20534;-69
2022/11/12 08:13:09;;;;;;;9.93;8.93;;;5.20;99.90;;;5.18;92.05;99634.28;4953441;28;20456;-69
2022/11/12 08:15:37;;;;;;;10.47;9.20;;;5.30;99.90;;;5.40;91.36;99629.59;4986427;28;20464;-70
2022/11/12 08:18:05;;;;;;;9.33;8.30;;;5.50;99.90;;;5.73;90.66;99635.47;4965743;28;20924;-69
2022/11/12 08:20:32;;;;;;;8.63;7.70;;;5.70;99.90;;;5.88;89.04;99614.41;4986730;28;20456;-70
2022/11/12 08:23:00;;;;;;;9.17;8.27;;;5.90;99.90;;;5.38;89.50;99627.06;4967057;28;20453;-69
2022/11/12 08:25:27;;;;;;;10.73;9.07;;;5.80;99.90;;;5.78;90.77;99632.34;4985908;28;20521;-70
2022/11/12 08:27:59;;;;;;;9.07;8.03;;;5.80;99.90;;;5.87;88.90;99617.22;4983955;28;20452;-70
2022/11/12 08:30:27;;;;;;;9.63;8.63;;;6.10;99.90;;;5.89;89.44;99621.47;4981846;28;20550;-70
2022/11/12 08:33:02;;;;;;;10.13;9.13;;;6.00;99.90;;;6.05;87.74;99641.50;4988349;28;20453;-70
2022/11/12 08:35:32;;;;;;;10.63;9.33;;;6.20;99.90;;;6.34;91.91;99643.22;4987518;28;20533;-69
2022/11/12 08:38:00;;;;;;;10.10;9.03;;;6.30;99.90;;;6.15;88.29;99642.31;4981529;28;20457;-70
2022/11/12 08:40:27;;;;;;;9.97;8.83;;;6.40;99.90;;;6.10;88.61;99633.84;4974859;28;20871;-70
2022/11/12 08:42:59;;;;;;;10.30;9.30;;;6.40;99.10;;;6.03;87.78;99636.28;4969899;28;20449;-71
2022/11/12 08:45:27;;;;;;;10.97;9.87;;;6.40;98.40;;;5.89;89.00;99640.25;4963395;28;20450;-70
2022/11/12 08:48:01;;;;;;;11.37;9.70;;;6.30;98.90;;;5.87;89.03;99639.53;4967433;28;20452;-70
2022/11/12 08:50:29;;;;;;;10.80;9.13;;;6.30;99.20;;;6.03;88.59;99632.75;4965735;28;20511;-69
2022/11/12 08:53:01;;;;;;;10.97;9.33;;;6.40;99.10;;;6.19;88.10;99632.97;4962462;28;20451;-69
2022/11/12 08:55:28;;;;;;;10.13;9.23;;;6.40;98.70;;;5.87;87.80;99593.09;4965961;28;20459;-69
2022/11/12 08:57:58;;;;;;;10.37;9.30;;;6.50;97.40;;;6.16;88.08;99627.03;4978245;28;20534;-70
2022/11/12 09:00:27;;;;;;;10.57;9.40;;;6.50;97.80;;;6.17;87.93;99624.22;4983342;28;20451;-69
2022/11/12 09:02:54;;;;;;;10.80;9.70;;;6.50;97.80;;;6.38;87.02;99624.00;4979004;28;20468;-67
2022/11/12 09:05:23;;;;;;;10.00;9.00;;;6.60;97.30;;;6.42;87.01;99621.84;4982535;28;20559;-68
2022/11/12 09:07:57;;;;;;;9.37;8.40;;;6.70;96.30;;;6.68;85.59;99631.88;4981794;28;20480;-70
2022/11/12 09:10:25;;;;;;;12.17;10.87;;;6.90;95.30;;;6.64;86.19;99636.69;4957903;28;20499;-68
2022/11/12 09:12:52;;;;;;;10.53;9.43;;;6.90;95.80;;;7.01;84.74;99629.53;4980196;28;20473;-69
2022/11/12 09:15:20;;;;;;;11.93;9.77;;;7.10;95.10;;;6.79;84.42;99618.25;4965678;28;20527;-69
2022/11/12 09:17:47;;;;;;;12.10;10.60;;;7.20;93.40;;;6.81;84.82;99623.44;4978446;28;20990;-68
2022/11/12 09:20:15;;;;;;;11.03;10.03;;;7.10;93.50;;;6.80;84.60;99625.31;4979105;28;20945;-69
2022/11/12 09:22:43;;;;;;;10.90;9.90;;;7.20;93.20;;;6.87;84.97;99625.53;4979370;28;20469;-68
2022/11/12 09:25:12;;;;;;;11.40;10.20;;;7.10;93.80;;;7.15;83.69;99620.09;4981290;28;20453;-70
2022/11/12 09:27:39;;;;;;;12.60;11.30;;;7.20;94.00;;;7.56;83.14;99619.59;4967731;28;20493;-70
2022/11/12 09:30:08;;;;;;;11.90;9.83;;;7.40;94.00;;;7.83;81.29;99615.09;4985801;28;21151;-70
2022/11/12 09:32:35;;;;;;;10.33;9.23;;;7.70;92.50;;;8.08;81.03;99617.91;4977169;28;20801;-70
2022/11/12 09:35:03;;;;;;;12.27;8.67;;;7.90;93.00;;;8.18;80.01;99621.31;4963830;28;20794;-70
2022/11/12 09:37:30;;;;;;;9.53;8.63;;;8.00;91.90;;;8.26;78.62;99620.53;4961297;28;21408;-68
2022/11/12 09:39:58;;;;;;;9.77;8.37;;;8.10;91.00;;;8.29;78.31;99613.97;4978870;28;20464;-70
2022/11/12 09:42:26;;;;;;;10.20;9.20;;;8.20;90.50;;;7.59;81.07;99619.28;4970976;28;20961;-70
2022/11/12 09:45:00;;;;;;;10.60;9.60;;;8.00;90.30;;;7.74;81.35;99616.88;4963330;28;20583;-70
2022/11/12 09:47:34;;;;;;;9.50;8.60;;;7.90;91.60;;;7.76;80.96;99609.50;4979480;28;20503;-69
2022/11/12 09:50:16;;;;;;;11.37;9.27;;;7.90;91.30;;;7.88;80.69;99615.44;4984117;28;21003;-68
2022/11/12 09:52:45;;;;;;;9.90;8.93;;;7.90;91.50;;;7.61;81.45;99613.75;4963870;28;21007;-69
2022/11/12 09:55:20;;;;;;;11.10;9.43;;;7.90;90.90;;;7.33;81.40;99550.16;4969268;28;20442;-69
2022/11/12 09:57:47;;;;;;;12.87;8.97;;;8.00;91.30;;;7.93;81.19;99614.97;4966149;28;20448;-69
2022/11/12 10:00:18;;;;;;;9.63;8.63;;;8.00;91.50;;;8.21;79.09;99615.63;4987044;28;20484;-70
2022/11/12 10:02:54;;;;;;;9.83;8.47;;;8.10;91.20;;;8.57;78.90;99617.31;4982360;28;20475;-69
2022/11/12 10:05:29;;;;;;;11.17;8.60;;;8.30;90.80;;;8.31;78.60;99612.78;4981852;28;20546;-69
2022/11/12 10:08:16;;;;;;;9.57;8.67;;;8.40;90.30;;;8.18;79.44;99604.31;4982308;28;20467;-69
2022/11/12 10:10:50;;;;;;;10.53;9.47;;;8.40;90.30;;;8.24;79.63;99603.69;4968844;28;20452;-68
2022/11/12 10:13:35;;;;;;;10.93;9.90;;;8.40;90.40;;;8.52;79.39;99600.81;4964201;28;20452;-69
2022/11/12 10:19:29;;;;;;;10.03;9.07;;;8.70;90.80;;;9.07;77.13;99575.13;4971865;28;20452;-68
2022/11/12 10:22:19;;;;;;;10.63;9.40;;;8.90;90.00;;;9.18;77.53;99589.31;4985889;28;20461;-68
2022/11/12 10:24:48;;;;;;;10.13;9.13;;;9.00;89.40;;;8.90;76.95;99584.22;4986257;28;20588;-68
2022/11/12 10:27:20;;;;;;;10.30;9.10;;;9.00;88.10;;;8.99;76.81;99579.69;4958574;28;20793;-69
2022/11/12 10:29:56;;;;;;;10.60;9.37;;;9.00;88.20;;;9.32;75.59;99585.91;4979726;28;20467;-72
2022/11/12 10:32:23;;;;;;;10.57;9.57;;;9.10;88.50;;;9.37;75.76;99576.50;4991084;28;20452;-71
2022/11/12 10:34:51;;;;;;;10.67;9.67;;;9.20;88.00;;;9.31;76.41;99578.84;4974976;28;20537;-69
2022/11/12 10:37:22;;;;;;;10.07;9.07;;;9.30;87.70;;;9.49;76.14;99569.75;4986736;28;20485;-70
2022/11/12 10:39:49;;;;;;;9.90;9.00;;;9.40;88.40;;;9.29;76.79;99567.38;4970735;28;20448;-70
2022/11/12 10:42:20;;;;;;;9.80;8.90;;;9.40;87.70;;;9.60;74.45;99563.16;4974393;28;20951;-69
2022/11/12 10:44:48;;;;;;;10.07;8.90;;;9.50;87.20;;;9.69;75.37;99559.41;4976924;28;20526;-70
2022/11/12 10:47:28;;;;;;;10.40;9.40;;;9.50;87.50;;;9.51;75.39;99559.63;4975720;28;21046;-69
2022/11/12 10:50:18;;;;;;;10.40;9.40;;;9.60;87.30;;;9.77;75.34;99563.94;4983532;28;20952;-69
2022/11/12 10:53:00;;;;;;;10.47;9.40;;;9.60;87.40;;;10.17;74.44;99562.13;4987365;28;20460;-69
2022/11/12 10:55:30;;;;;;;11.73;9.70;;;9.80;87.80;;;10.41;72.91;99562.22;4989151;28;20463;-69